首页
METAR-TAF:

METAR-TAF

机场 :

葉卡捷琳堡, 俄罗斯

科利佐沃國際機場

纬度: 56-50N, 经度: 060-38E, 海拔: 237米

当前天气观测

该预报发布于20分钟前的03:00 UTC
风速2节,风向多变
温度 -25°C
湿度 83%
气压 1038 hPa
能見度: 5000
多云层高于1400英尺
小雪

METAR: USSS 200300Z VRB01MPS 5000 -SN BKN014 M25/M27 Q1038 R26R/450140 NOSIG RMK QFE757/1010

时间: 08:20 (03:20 UTC)

预报

该预报发布于1小时和25分钟前的01:55 UTC
预报有效从20日的 03点(UTC)到 21日的 03点(UTC)
风速6节,风向
能見度: 3100
多云层高于700英尺
小雪, 轻雾
短暂存在
从 20日的 03点(UTC)到 20日的 06点(UTC)
能見度: 0600
层高于300英尺
成为
从 20日的 06点(UTC)到 20日的 07点(UTC)
能見度: 5000
多云层高于1500英尺
轻雾
成为
从 20日的 07点(UTC)到 20日的 08点(UTC)
能见度10公里或以上

TAF: USSS 200155Z 2003/2103 09003MPS 3100 -SN BR BKN007 TEMPO 2003/2006 0600 FG VV003 BECMG 2006/2007 5000 BR BKN015 BECMG 2007/2008 9999 NSW

超过4000个机场的气象观测和天气预报(METAR&TAF报告)。

可查询的气象台以黄色和红色小点在地图上表示。

将鼠标移到小点上方,可查看气象台名称。

然后点击查看天气观测和预报。

如需切换地图:点击带黑十字的绿色按钮放大地图;点击带横线的绿色按钮缩小地图;或者点击绿色箭头查看邻近地区的地图。


METAR-TAF: